Time;durP1;ratioP1;P1;durP2;ratioP2;P2;SDS_P1;SDS_P2;PMS_P1;PMS_P2;Temp;Humidity;BMP_temperature;BMP_pressure;BME280_temperature;BME280_humidity;BME280_pressure;Samples;Min_cycle;Max_cycle;Signal;HPM_P1;HPM_P2
2024/01/19 16:00:17;;;;;;;178.95;63.42;;;-2.10;99.90;;;;;;5105714;27;20399;-48
2024/01/19 16:02:43;;;;;;;208.93;69.57;;;-2.20;99.90;;;;;;5106264;28;20043;-53
2024/01/19 16:05:09;;;;;;;204.37;74.30;;;-2.30;99.90;;;;;;5106386;28;20028;-49
2024/01/19 16:07:34;;;;;;;188.37;69.53;;;-2.30;99.90;;;;;;5106410;28;20478;-52
2024/01/19 16:10:00;;;;;;;181.83;66.63;;;-2.30;99.90;;;;;;5106009;28;20379;-49
2024/01/19 16:12:26;;;;;;;163.20;62.47;;;-2.30;1.00;;;;;;5106032;28;20024;-48
2024/01/19 16:14:52;;;;;;;168.35;65.93;;;-2.30;1.00;;;;;;5105910;28;20020;-47
2024/01/19 16:17:18;;;;;;;159.70;60.90;;;-2.20;1.00;;;;;;5105864;28;20081;-49
2024/01/19 16:19:48;;;;;;;159.67;62.20;;;-2.20;99.90;;;;;;5106075;28;20086;-47
2024/01/19 16:22:14;;;;;;;172.30;68.05;;;-2.10;99.90;;;;;;5105925;28;20020;-47
2024/01/19 16:24:40;;;;;;;177.70;69.67;;;-1.90;1.00;;;;;;5105540;28;20024;-51
2024/01/19 16:27:05;;;;;;;154.13;66.70;;;-1.90;1.00;;;;;;5105970;28;20027;-51
2024/01/19 16:29:33;;;;;;;149.30;60.93;;;-1.80;1.00;;;;;;5105550;28;20107;-47
2024/01/19 16:31:59;;;;;;;160.15;62.20;;;-1.70;1.00;;;;;;5105588;28;20035;-50
2024/01/19 16:34:24;;;;;;;149.10;58.85;;;-1.70;99.90;;;;;;5105632;28;20100;-48
2024/01/19 16:36:50;;;;;;;154.00;60.10;;;-1.70;1.00;;;;;;5104394;28;20105;-51
2024/01/19 16:39:16;;;;;;;121.05;48.13;;;-1.60;1.00;;;;;;5105612;28;20080;-49
2024/01/19 16:41:43;;;;;;;119.65;50.13;;;-1.60;1.00;;;;;;5107292;28;20076;-48
2024/01/19 16:44:09;;;;;;;124.68;51.45;;;-1.60;99.90;;;;;;5106807;28;20032;-46
2024/01/19 16:46:38;;;;;;;127.45;51.30;;;-1.50;1.00;;;;;;5106835;28;20028;-52
2024/01/19 16:49:04;;;;;;;130.52;54.83;;;-1.60;99.90;;;;;;5105594;28;20032;-47
2024/01/19 16:51:30;;;;;;;124.05;54.22;;;-1.60;99.90;;;;;;5105523;28;20024;-51
2024/01/19 16:53:56;;;;;;;170.68;66.22;;;-1.60;1.00;;;;;;5105591;28;20039;-48
2024/01/19 16:56:21;;;;;;;145.07;59.22;;;-1.60;1.00;;;;;;5105330;28;20160;-50
2024/01/19 16:58:47;;;;;;;136.07;55.95;;;-1.60;1.00;;;;;;5105010;28;20040;-49
2024/01/19 17:01:13;;;;;;;128.45;54.85;;;-1.70;99.90;;;;;;5105270;28;20028;-47
2024/01/19 17:03:38;;;;;;;129.80;52.13;;;-1.70;99.90;;;;;;5104960;28;20039;-50
2024/01/19 17:06:04;;;;;;;123.65;51.92;;;-1.80;1.00;;;;;;5104946;28;20142;-47
2024/01/19 17:08:30;;;;;;;123.03;51.42;;;-1.80;43.90;;;;;;5104933;28;20497;-49
2024/01/19 17:10:55;;;;;;;125.63;50.15;;;-1.80;99.90;;;;;;5095097;28;20077;-51
2024/01/19 17:13:21;;;;;;;148.20;58.83;;;-1.80;1.00;;;;;;5091152;28;20032;-47
2024/01/19 17:15:47;;;;;;;106.35;49.95;;;-1.70;99.90;;;;;;5091746;28;20112;-54
2024/01/19 17:18:12;;;;;;;102.78;45.15;;;-1.60;99.90;;;;;;5091054;28;20534;-50
2024/01/19 17:20:38;;;;;;;112.03;47.03;;;-1.60;99.90;;;;;;5090983;28;20111;-49
2024/01/19 17:23:04;;;;;;;88.85;37.90;;;-1.50;99.90;;;;;;5091344;28;20050;-52
2024/01/19 17:25:30;;;;;;;85.05;38.83;;;-1.50;99.90;;;;;;5091037;28;20024;-49
2024/01/19 17:27:57;;;;;;;87.35;37.65;;;-1.40;96.10;;;;;;5090676;28;20492;-47
2024/01/19 17:30:24;;;;;;;91.95;38.13;;;-1.40;1.00;;;;;;5091102;28;20082;-48
2024/01/19 17:32:53;;;;;;;85.50;38.10;;;-1.40;1.00;;;;;;5091101;28;20035;-46
2024/01/19 17:35:22;;;;;;;76.93;35.83;;;-1.30;99.90;;;;;;5089494;28;20031;-50
2024/01/19 17:37:48;;;;;;;84.88;36.38;;;-1.30;99.90;;;;;;5090999;28;20020;-50
2024/01/19 17:40:13;;;;;;;68.00;31.38;;;-1.30;1.00;;;;;;5090661;28;20068;-48
2024/01/19 17:42:39;;;;;;;62.00;29.13;;;-1.20;99.90;;;;;;5090374;28;20105;-48
2024/01/19 17:45:06;;;;;;;65.85;28.88;;;-1.10;99.90;;;;;;5090774;28;20104;-50
2024/01/19 17:47:32;;;;;;;56.05;24.40;;;-1.10;99.90;;;;;;5090744;28;20028;-52
2024/01/19 17:49:57;;;;;;;65.45;26.15;;;-1.10;99.90;;;;;;5090722;28;20074;-49
2024/01/19 17:52:23;;;;;;;62.03;26.05;;;-1.10;99.90;;;;;;5090555;28;20461;-47
2024/01/19 17:54:49;;;;;;;61.03;25.85;;;-1.00;99.90;;;;;;5090595;28;20032;-50
2024/01/19 17:57:15;;;;;;;65.80;26.33;;;-1.00;99.90;;;;;;5090780;28;20028;-50
2024/01/19 17:59:40;;;;;;;55.63;26.63;;;-1.00;99.90;;;;;;5090173;28;20052;-53
2024/01/19 18:02:06;;;;;;;67.45;26.02;;;-1.00;99.90;;;;;;5090355;28;20386;-47
2024/01/19 18:04:33;;;;;;;62.53;26.23;;;-0.90;99.90;;;;;;5090340;28;20457;-51
2024/01/19 18:06:58;;;;;;;56.92;25.05;;;-1.00;99.90;;;;;;5090459;28;20035;-49
2024/01/19 18:09:24;;;;;;;56.88;24.88;;;-1.00;99.90;;;;;;5089896;28;20518;-49
2024/01/19 18:11:50;;;;;;;60.42;25.73;;;-1.00;99.90;;;;;;5090114;28;20482;-49
2024/01/19 18:14:16;;;;;;;71.40;27.77;;;-1.00;99.90;;;;;;5090132;28;20528;-52
2024/01/19 18:16:42;;;;;;;54.58;23.75;;;-1.00;99.90;;;;;;5089938;28;20031;-49
2024/01/19 18:19:08;;;;;;;54.80;22.83;;;-1.00;99.90;;;;;;5089833;28;20036;-52
2024/01/19 18:21:35;;;;;;;55.03;23.70;;;-1.00;99.90;;;;;;5089456;28;20055;-50
2024/01/19 18:24:01;;;;;;;;;;;-1.00;99.90;;;;;;5089937;28;20059;-50
2024/01/19 18:26:26;;;;;;;46.25;20.02;;;-0.90;99.90;;;;;;5089763;28;20355;-47
2024/01/19 18:28:55;;;;;;;52.38;21.35;;;-0.90;99.90;;;;;;5089596;28;20035;-52
2024/01/19 18:31:21;;;;;;;43.72;20.20;;;-0.90;99.90;;;;;;5089480;28;20096;-49
2024/01/19 18:33:47;;;;;;;49.42;22.95;;;-0.90;99.90;;;;;;5089127;28;20024;-51
2024/01/19 18:36:13;;;;;;;55.38;24.35;;;-1.00;99.90;;;;;;5089359;28;20134;-50
2024/01/19 18:38:39;;;;;;;56.55;24.80;;;-1.00;99.90;;;;;;5089332;28;20040;-53
2024/01/19 18:41:05;;;;;;;54.85;24.58;;;-1.00;99.90;;;;;;5089262;28;20032;-52
2024/01/19 18:43:31;;;;;;;53.70;26.30;;;-1.00;99.90;;;;;;5089608;28;20471;-51
2024/01/19 18:45:57;;;;;;;55.58;25.23;;;-1.00;99.90;;;;;;5089537;28;20028;-49
2024/01/19 18:48:22;;;;;;;50.17;23.55;;;-1.00;99.90;;;;;;5089203;28;20028;-47
2024/01/19 18:50:48;;;;;;;51.40;21.42;;;-1.00;99.90;;;;;;5089358;28;20032;-50
2024/01/19 18:53:14;;;;;;;56.30;24.40;;;-0.90;99.90;;;;;;5089255;28;20471;-48
2024/01/19 18:55:40;;;;;;;41.70;19.77;;;-0.90;99.90;;;;;;5089804;28;20040;-46
2024/01/19 18:58:05;;;;;;;71.85;24.50;;;-1.00;99.90;;;;;;5089046;28;20032;-51
2024/01/19 19:00:31;;;;;;;48.70;18.88;;;-1.00;99.90;;;;;;5089414;28;20020;-50
2024/01/19 19:02:57;;;;;;;55.08;23.13;;;-1.00;99.90;;;;;;5089457;28;20024;-48
2024/01/19 19:05:22;;;;;;;39.10;16.77;;;-1.00;99.90;;;;;;5089135;28;20031;-50
2024/01/19 19:07:51;;;;;;;53.67;20.85;;;-1.00;99.90;;;;;;5089264;28;20027;-47
2024/01/19 19:10:17;;;;;;;62.25;23.27;;;-1.00;99.90;;;;;;5089262;28;20525;-46
2024/01/19 19:12:43;;;;;;;64.07;21.90;;;-1.00;99.90;;;;;;5089903;28;20074;-50
2024/01/19 19:15:09;;;;;;;47.40;19.15;;;-1.00;99.90;;;;;;5089293;28;20039;-51
2024/01/19 19:17:35;;;;;;;41.08;17.10;;;-1.00;99.90;;;;;;5090383;28;20016;-49
2024/01/19 19:20:01;;;;;;;47.17;18.55;;;-1.00;99.90;;;;;;5090950;28;20147;-49
2024/01/19 19:22:27;;;;;;;48.22;20.05;;;-1.10;99.90;;;;;;5089138;28;20427;-51
2024/01/19 19:24:54;;;;;;;49.63;20.05;;;-1.10;99.90;;;;;;5089016;28;20063;-49
2024/01/19 19:27:20;;;;;;;38.30;15.60;;;-1.10;99.90;;;;;;5072072;28;20043;-53
2024/01/19 19:29:45;;;;;;;40.60;16.00;;;-1.10;99.90;;;;;;5068548;28;20408;-47
2024/01/19 19:32:11;;;;;;;41.90;15.60;;;-1.10;99.90;;;;;;5082760;28;20093;-48
2024/01/19 19:34:37;;;;;;;37.40;16.75;;;-1.10;99.90;;;;;;5088435;28;20028;-52
2024/01/19 19:37:03;;;;;;;40.50;15.48;;;-1.20;99.90;;;;;;5088369;28;20036;-47
2024/01/19 19:39:35;;;;;;;39.40;15.03;;;-1.20;99.90;;;;;;5088426;28;20035;-48
2024/01/19 19:42:00;;;;;;;40.40;16.15;;;-1.30;99.90;;;;;;5088463;28;20531;-48
2024/01/19 19:44:27;;;;;;;38.42;15.57;;;-1.30;99.90;;;;;;5088011;28;20123;-48
2024/01/19 19:46:53;;;;;;;36.22;16.80;;;-1.20;99.90;;;;;;5087612;28;20369;-52
2024/01/19 19:49:18;;;;;;;38.08;14.88;;;-1.20;99.90;;;;;;5087821;28;20360;-50
2024/01/19 19:51:44;;;;;;;40.17;16.65;;;-1.10;99.90;;;;;;5087925;28;20020;-47
2024/01/19 19:54:10;;;;;;;33.05;14.20;;;-1.20;99.90;;;;;;5087654;28;20035;-50
2024/01/19 19:56:37;;;;;;;38.45;13.50;;;-1.20;99.90;;;;;;5087983;28;20020;-49
2024/01/19 19:59:03;;;;;;;39.00;15.75;;;-1.20;99.90;;;;;;5086863;28;20040;-53
2024/01/19 20:01:28;;;;;;;60.10;23.70;;;-1.10;99.90;;;;;;5087599;28;20104;-48
2024/01/19 20:03:54;;;;;;;41.70;16.15;;;-1.10;99.90;;;;;;5087655;28;20020;-48
2024/01/19 20:06:24;;;;;;;38.28;17.02;;;-1.20;99.90;;;;;;5086889;28;20028;-50
2024/01/19 20:08:53;;;;;;;43.67;17.65;;;-1.20;99.90;;;;;;5087050;28;20055;-46
2024/01/19 20:11:19;;;;;;;46.67;19.02;;;-1.10;99.90;;;;;;5086842;28;20021;-47
2024/01/19 20:13:45;;;;;;;50.20;20.02;;;-1.20;99.90;;;;;;5086532;28;20028;-45
2024/01/19 20:16:12;;;;;;;43.17;19.58;;;-1.20;99.90;;;;;;5087459;28;20025;-49
2024/01/19 20:18:38;;;;;;;54.03;20.40;;;-1.20;99.90;;;;;;5086544;28;20040;-50
2024/01/19 20:21:04;;;;;;;61.67;22.02;;;-1.10;99.90;;;;;;5086930;28;20471;-47
2024/01/19 20:23:30;;;;;;;75.47;27.47;;;-1.10;99.90;;;;;;5087556;28;20032;-49
2024/01/19 20:25:56;;;;;;;76.55;28.50;;;-1.20;99.90;;;;;;5084744;28;20040;-49
2024/01/19 20:28:22;;;;;;;68.85;24.55;;;-1.20;99.90;;;;;;5087590;28;20078;-48
2024/01/19 20:30:47;;;;;;;53.67;22.15;;;-1.10;99.90;;;;;;5084822;28;20024;-48
2024/01/19 20:33:13;;;;;;;54.97;22.02;;;-1.10;99.90;;;;;;5087393;28;20027;-47
2024/01/19 20:35:38;;;;;;;55.25;22.85;;;-1.10;99.90;;;;;;5087165;28;20829;-48
2024/01/19 20:38:04;;;;;;;51.53;21.05;;;-1.10;99.90;;;;;;5087718;28;20032;-47
2024/01/19 20:40:31;;;;;;;54.63;20.88;;;-1.10;99.90;;;;;;5087474;28;20020;-52
2024/01/19 20:42:57;;;;;;;52.00;22.45;;;-1.10;99.90;;;;;;5085985;28;20028;-49
2024/01/19 20:45:23;;;;;;;55.53;22.35;;;-1.10;99.90;;;;;;5076391;28;20511;-51
2024/01/19 20:47:48;;;;;;;58.08;23.33;;;-1.10;99.90;;;;;;5070169;28;20035;-46
2024/01/19 20:50:14;;;;;;;52.00;21.13;;;-1.20;99.90;;;;;;5070370;28;20491;-50
2024/01/19 20:52:42;;;;;;;49.65;21.55;;;-1.10;99.90;;;;;;5070685;28;20033;-47
2024/01/19 20:55:08;;;;;;;50.22;21.90;;;-1.20;99.90;;;;;;5070343;28;20037;-53
2024/01/19 20:57:34;;;;;;;45.90;18.00;;;-1.10;99.90;;;;;;5071060;28;20017;-50
2024/01/19 21:00:00;;;;;;;44.72;18.85;;;-1.10;99.90;;;;;;5073144;28;20499;-50
2024/01/19 21:02:26;;;;;;;56.30;20.98;;;-1.20;99.90;;;;;;5082651;28;20059;-49
2024/01/19 21:04:52;;;;;;;47.22;19.00;;;-1.10;99.90;;;;;;5070044;28;20707;-50
2024/01/19 21:07:18;;;;;;;74.68;24.88;;;-1.10;99.90;;;;;;5089818;28;20024;-49
2024/01/19 21:09:44;;;;;;;68.80;24.73;;;-1.10;99.90;;;;;;5089222;28;20047;-46
2024/01/19 21:12:09;;;;;;;84.17;28.80;;;-1.10;99.90;;;;;;5089331;28;20767;-48
2024/01/19 21:14:35;;;;;;;71.80;28.33;;;-1.10;99.90;;;;;;5089625;28;20036;-48
2024/01/19 21:17:01;;;;;;;76.82;29.75;;;-1.10;99.90;;;;;;5089071;28;20036;-53
2024/01/19 21:19:27;;;;;;;96.35;34.38;;;-1.10;99.90;;;;;;5089596;28;20044;-51
2024/01/19 21:21:52;;;;;;;99.90;39.42;;;-1.10;99.90;;;;;;5090229;28;20028;-50
2024/01/19 21:24:18;;;;;;;103.75;42.25;;;-1.20;99.90;;;;;;5088714;28;20032;-48
2024/01/19 21:26:44;;;;;;;99.72;38.38;;;-1.20;99.90;;;;;;5089800;28;20455;-51
2024/01/19 21:29:10;;;;;;;95.93;34.85;;;-1.30;99.90;;;;;;5089901;28;20035;-49
2024/01/19 21:31:36;;;;;;;82.78;32.47;;;-1.30;99.90;;;;;;5089314;28;20031;-48
2024/01/19 21:34:02;;;;;;;93.32;34.17;;;-1.30;99.90;;;;;;5089670;28;20044;-49
2024/01/19 21:36:28;;;;;;;91.85;37.90;;;-1.30;99.90;;;;;;5089449;28;20367;-50
2024/01/19 21:38:53;;;;;;;106.27;42.87;;;-1.30;99.90;;;;;;5090413;28;20040;-45
2024/01/19 21:41:20;;;;;;;122.97;44.65;;;-1.30;99.90;;;;;;5084880;28;20023;-52
2024/01/19 21:43:46;;;;;;;138.87;49.13;;;-1.40;99.90;;;;;;5069949;28;20036;-51
2024/01/19 21:46:15;;;;;;;142.02;50.30;;;-1.40;99.90;;;;;;5079361;28;20277;-51
2024/01/19 21:48:40;;;;;;;131.70;51.15;;;-1.40;99.90;;;;;;5091026;28;20024;-46
2024/01/19 21:51:07;;;;;;;124.80;49.35;;;-1.40;99.90;;;;;;5090573;28;20429;-53
2024/01/19 21:53:32;;;;;;;126.80;50.70;;;-1.40;99.90;;;;;;5089169;28;20024;-51
2024/01/19 21:55:58;;;;;;;126.60;48.72;;;-1.40;99.90;;;;;;5089170;28;20077;-51
2024/01/19 21:58:24;;;;;;;116.35;48.10;;;-1.40;99.90;;;;;;5088814;28;20087;-50
2024/01/19 22:00:49;;;;;;;122.22;47.47;;;-1.40;99.90;;;;;;5089143;28;20048;-51
2024/01/19 22:03:15;;;;;;;121.25;49.75;;;-1.40;99.90;;;;;;5089397;28;20028;-52
2024/01/19 22:05:40;;;;;;;116.93;46.10;;;-1.40;99.90;;;;;;5087356;28;20024;-49
2024/01/19 22:08:06;;;;;;;124.15;51.38;;;-1.40;99.90;;;;;;5089548;28;20379;-50
2024/01/19 22:10:32;;;;;;;107.38;41.33;;;-1.40;99.90;;;;;;5088762;28;20523;-46
2024/01/19 22:12:57;;;;;;;103.43;41.55;;;-1.40;99.90;;;;;;5089477;28;20024;-49
2024/01/19 22:15:23;;;;;;;96.45;38.42;;;-1.40;99.90;;;;;;5087670;28;20430;-50
2024/01/19 22:17:49;;;;;;;79.22;34.38;;;-1.40;99.90;;;;;;5088919;28;20470;-48
2024/01/19 22:20:14;;;;;;;83.20;35.85;;;-1.30;99.90;;;;;;5088904;28;20909;-50
2024/01/19 22:22:40;;;;;;;94.05;36.65;;;-1.30;99.90;;;;;;5088899;28;20036;-52
2024/01/19 22:25:06;;;;;;;88.78;35.90;;;-1.30;99.90;;;;;;5088687;28;20046;-52
2024/01/19 22:27:32;;;;;;;82.72;36.72;;;-1.30;99.90;;;;;;5088824;28;20035;-49
2024/01/19 22:29:57;;;;;;;99.93;38.90;;;-1.30;99.90;;;;;;5087857;28;20024;-47
2024/01/19 22:32:23;;;;;;;106.28;43.53;;;-1.30;99.90;;;;;;5087941;28;20020;-47
2024/01/19 22:34:49;;;;;;;124.05;46.65;;;-1.30;99.90;;;;;;5087697;28;20113;-49
2024/01/19 22:37:14;;;;;;;134.07;50.58;;;-1.30;99.90;;;;;;5086318;28;20157;-48
2024/01/19 22:39:41;;;;;;;124.32;47.65;;;-1.40;99.90;;;;;;5088128;28;20722;-51
2024/01/19 22:42:07;;;;;;;132.60;47.63;;;-1.40;99.90;;;;;;5085447;28;20032;-46
2024/01/19 22:44:32;;;;;;;122.75;48.20;;;-1.40;99.90;;;;;;5087666;28;20395;-48
2024/01/19 22:46:58;;;;;;;133.68;49.95;;;-1.50;99.90;;;;;;5085893;28;20477;-50
2024/01/19 22:49:26;;;;;;;102.93;41.40;;;-1.50;99.90;;;;;;5087499;28;20074;-46
2024/01/19 22:51:52;;;;;;;99.15;40.13;;;-1.50;99.90;;;;;;5086618;28;20588;-49
2024/01/19 22:54:18;;;;;;;100.72;39.55;;;-1.50;99.90;;;;;;5087570;28;20020;-48
2024/01/19 22:56:44;;;;;;;103.65;39.28;;;-1.60;99.90;;;;;;5086083;28;20111;-47
2024/01/19 22:59:09;;;;;;;95.90;36.65;;;-1.60;99.90;;;;;;5087021;28;20098;-50
2024/01/19 23:01:35;;;;;;;82.22;33.38;;;-1.60;99.90;;;;;;5087573;28;20170;-52
2024/01/19 23:04:01;;;;;;;85.03;32.90;;;-1.60;99.90;;;;;;5087022;28;20048;-51
2024/01/19 23:06:27;;;;;;;72.10;29.63;;;-1.60;99.90;;;;;;5086466;28;20068;-48
2024/01/19 23:08:52;;;;;;;71.88;30.60;;;-1.70;99.90;;;;;;5087171;28;20093;-50
2024/01/19 23:11:18;;;;;;;69.63;27.80;;;-1.70;99.90;;;;;;5082161;28;20047;-51
2024/01/19 23:13:43;;;;;;;73.95;28.30;;;-1.70;99.90;;;;;;5070303;28;20031;-50
2024/01/19 23:16:09;;;;;;;62.13;26.63;;;-1.60;99.90;;;;;;5086364;28;20068;-46
2024/01/19 23:18:35;;;;;;;70.60;28.90;;;-1.60;99.90;;;;;;5086970;28;20040;-45
2024/01/19 23:21:00;;;;;;;73.30;29.45;;;-1.60;99.90;;;;;;5086790;28;20094;-50
2024/01/19 23:23:26;;;;;;;75.07;31.77;;;-1.60;99.90;;;;;;5087011;28;20050;-52
2024/01/19 23:25:52;;;;;;;76.85;31.90;;;-1.60;99.90;;;;;;5085454;28;20016;-50
2024/01/19 23:28:18;;;;;;;76.47;31.27;;;-1.60;99.90;;;;;;5084389;28;20032;-49
2024/01/19 23:30:44;;;;;;;65.00;29.37;;;-1.60;99.90;;;;;;5087385;28;20581;-48
2024/01/19 23:33:10;;;;;;;74.65;28.67;;;-1.60;99.90;;;;;;5085131;28;20486;-51
2024/01/19 23:35:36;;;;;;;70.53;29.63;;;-1.60;99.90;;;;;;5088246;28;20043;-50
